Polar Ranger — WDC8652 — position and weather

sailwx.info

Track history (hours):
 
Tides and Currents Weather Stations Pressure Air Temp Water Temp Dewpoint Dewpoint Depression Visibility Wind Speed Wind Dir Waves Ship Positions

Polar Ranger

Owner: Dunlap Towing Co., LaConner, WA. More information available from US FCC via Universal Licensing System and Coast Guard Vessel Documentation Center.

Last reported at 2016-Jun-28 13:00 UTC. Time now 2016-Jun-30 10:37 UTC.
Position N 55°12' W 161°18'.

Type: Towing. MMSI: 367090860.

Barometer 1022.0 mb
Air temperature 13.3 ° C
Water temperature 11.7 ° C

Date/timePositionNaut miles runAvg speedWind from/ knotsBaromVisibWave heightAir tempDewpointWater temp
2016-Jun-28 13:00N 55°12' W 161°18'   1022.0 13.3 11.7
2016-Jun-22 12:00N 57°06' W 139°00'   360 / 151020.7 0.513.9 13.9
2016-Jun-19 07:27N 49°17' W 126°54'18 9.2
2016-Jun-19 05:27N 49°06' W 126°31'8 8.9
2016-Jun-19 04:32N 49°02' W 126°21'9 8.9
2016-Jun-19 03:33N 48°57' W 126°10'9 9.0
2016-Jun-19 02:34N 48°52' W 125°58'9 9.1
2016-Jun-19 01:34N 48°47' W 125°47'9 8.9
2016-Jun-19 00:33N 48°43' W 125°35'9 9.2
2016-Jun-18 23:33N 48°38' W 125°22'9 9.3
2016-Jun-18 22:33N 48°34' W 125°10'9 8.5
2016-Jun-18 21:32N 48°31' W 124°57'8 8.6
2016-Jun-18 20:33N 48°30' W 124°45'9 8.8
2016-Jun-18 19:33N 48°28' W 124°32'9 8.6
2016-Jun-18 18:34N 48°24' W 124°20'10 9.5
2016-Jun-18 17:33N 48°20' W 124°07'1010.4
2016-Jun-18 16:33N 48°17' W 123°52'1312.7
2016-Jun-18 15:33N 48°15' W 123°33'1212.1
2016-Jun-18 14:33N 48°14' W 123°15'1211.6
2016-Jun-18 13:34N 48°12' W 122°58'  
Track history (hours):
 
Tides and Currents Weather Stations Pressure Air Temp Water Temp Dewpoint Dewpoint Depression Visibility Wind Speed Wind Dir Waves Ship Positions

Polar Ranger

Owner: Dunlap Towing Co., LaConner, WA. More information available from US FCC via Universal Licensing System and Coast Guard Vessel Documentation Center.

Last reported at 2016-Jun-28 13:00 UTC. Time now 2016-Jun-30 10:37 UTC.
Position N 55°12' W 161°18'.

Type: Towing. MMSI: 367090860.

Barometer 1022.0 mb
Air temperature 13.3 ° C
Water temperature 11.7 ° C

Date/timePositionNaut miles runAvg speedWind from/ knotsBaromVisibWave heightAir tempDewpointWater temp
2016-Jun-28 13:00N 55°12' W 161°18'   1022.0 13.3 11.7
2016-Jun-22 12:00N 57°06' W 139°00'   360 / 151020.7 0.513.9 13.9
2016-Jun-19 07:27N 49°17' W 126°54'18 9.2
2016-Jun-19 05:27N 49°06' W 126°31'8 8.9
2016-Jun-19 04:32N 49°02' W 126°21'9 8.9
2016-Jun-19 03:33N 48°57' W 126°10'9 9.0
2016-Jun-19 02:34N 48°52' W 125°58'9 9.1
2016-Jun-19 01:34N 48°47' W 125°47'9 8.9
2016-Jun-19 00:33N 48°43' W 125°35'9 9.2
2016-Jun-18 23:33N 48°38' W 125°22'9 9.3
2016-Jun-18 22:33N 48°34' W 125°10'9 8.5
2016-Jun-18 21:32N 48°31' W 124°57'8 8.6
2016-Jun-18 20:33N 48°30' W 124°45'9 8.8
2016-Jun-18 19:33N 48°28' W 124°32'9 8.6
2016-Jun-18 18:34N 48°24' W 124°20'10 9.5
2016-Jun-18 17:33N 48°20' W 124°07'1010.4
2016-Jun-18 16:33N 48°17' W 123°52'1312.7
2016-Jun-18 15:33N 48°15' W 123°33'1212.1
2016-Jun-18 14:33N 48°14' W 123°15'1211.6
2016-Jun-18 13:34N 48°12' W 122°58'  

Dump ship's entire track history